Kissimmee Gateway Airport
KISM : now visible

Airfield :











YOU CAN JOIN US ON...

 
LOGIN :

Register | Disclaimer

   EN    FR    IT 

 









Legend :    VFR   Marginal VFR   IFR   Intensive IFR   Very Intensive IFR
Visi :
Ceiling :
>= 8 km
>= 3000ft
5 to 8 km
1000 to 3000 ft
1500m to 5 km
500 to 1000 ft
800 to 1500m
200 to 500 ft
< 800m
< 200 ft
Symbols :   Thunderstorms  Fog  Heavy snow  Heavy precipitations  Wind > 20 kt






- Airport Elevation : 82 ft


KISM - Kissimmee Gateway

EXPIRED METARs :
  • 260256Z AUTO 00000KT 10SM CLR 21/19 A3004 RMK AO2 SLP174 6//// T02110189 51008 PNO $
  • 260156Z 23006KT 10SM CLR 22/19 A3004 RMK AO2 SLP174 T02170189 PNO $

TAF KISM
Valid from the 26 at 00:00 until the 27 at 00:00 UTC


252335Z 2600/2624 19005KT P6SM SCT040 SCT250
FM260700 20005KT P6SM SCT010 SCT030
TEMPO 2609/2612 4SM BR BKN008
FM261500 21010G15KT P6SM SCT020 SCT040
FM262200 20006KT P6SM SCT250
KZMA FIR / North America



MET'MAP, your aeronautical weather chart ! - Copyright ORBIFLY December 2007 - Disclaimer

ORBIFLY MET'MAP TEAM :

Programming & Development : Alexandra Zaïnal
Concept & original design : Baudouin d'Aumeries
Assistance for programming : Marc-Olivier Méhu
Technical & hardware support : Manuel Goepfert

Contact : metmap@orbifly.com




SOURCES & CREDITS :

   NOAA       Earth
Advisory